sensor_id;sensor_type;location;lat;lon;timestamp;P1;durP1;ratioP1;P2;durP2;ratioP2
40052;SDS011;25758;48.200;16.338;2023-05-10T00:02:06;2.72;;;1.65;;
40052;SDS011;25758;48.200;16.338;2023-05-10T00:04:32;4.13;;;1.20;;
40052;SDS011;25758;48.200;16.338;2023-05-10T00:06:57;3.30;;;1.02;;
40052;SDS011;25758;48.200;16.338;2023-05-10T00:09:23;4.65;;;1.40;;
40052;SDS011;25758;48.200;16.338;2023-05-10T00:11:49;1.92;;;1.25;;
40052;SDS011;25758;48.200;16.338;2023-05-10T00:14:15;3.53;;;1.35;;
40052;SDS011;25758;48.200;16.338;2023-05-10T00:16:40;2.97;;;1.13;;
40052;SDS011;25758;48.200;16.338;2023-05-10T00:19:06;3.45;;;1.38;;
40052;SDS011;25758;48.200;16.338;2023-05-10T00:21:32;3.03;;;1.17;;
40052;SDS011;25758;48.200;16.338;2023-05-10T00:23:58;9.35;;;1.33;;
40052;SDS011;25758;48.200;16.338;2023-05-10T00:26:24;2.65;;;1.13;;
40052;SDS011;25758;48.200;16.338;2023-05-10T00:28:50;6.15;;;1.33;;
40052;SDS011;25758;48.200;16.338;2023-05-10T00:31:15;4.47;;;1.27;;
40052;SDS011;25758;48.200;16.338;2023-05-10T00:33:41;2.30;;;1.20;;
40052;SDS011;25758;48.200;16.338;2023-05-10T00:36:07;4.72;;;1.55;;
40052;SDS011;25758;48.200;16.338;2023-05-10T00:38:33;4.18;;;1.42;;
40052;SDS011;25758;48.200;16.338;2023-05-10T00:40:59;3.47;;;1.60;;
40052;SDS011;25758;48.200;16.338;2023-05-10T00:43:24;4.10;;;2.05;;
40052;SDS011;25758;48.200;16.338;2023-05-10T00:45:50;5.70;;;2.22;;
40052;SDS011;25758;48.200;16.338;2023-05-10T00:48:16;5.40;;;1.65;;
40052;SDS011;25758;48.200;16.338;2023-05-10T00:50:41;7.82;;;1.67;;
40052;SDS011;25758;48.200;16.338;2023-05-10T00:53:07;6.82;;;1.58;;
40052;SDS011;25758;48.200;16.338;2023-05-10T00:55:33;6.72;;;1.40;;
40052;SDS011;25758;48.200;16.338;2023-05-10T00:57:59;4.63;;;1.83;;
40052;SDS011;25758;48.200;16.338;2023-05-10T01:00:26;1.88;;;1.15;;
40052;SDS011;25758;48.200;16.338;2023-05-10T01:02:53;4.03;;;1.73;;
40052;SDS011;25758;48.200;16.338;2023-05-10T01:05:19;3.78;;;1.50;;
40052;SDS011;25758;48.200;16.338;2023-05-10T01:07:45;4.00;;;1.50;;
40052;SDS011;25758;48.200;16.338;2023-05-10T01:10:11;2.90;;;1.25;;
40052;SDS011;25758;48.200;16.338;2023-05-10T01:12:37;3.05;;;1.20;;
40052;SDS011;25758;48.200;16.338;2023-05-10T01:15:05;4.82;;;2.45;;
40052;SDS011;25758;48.200;16.338;2023-05-10T01:17:33;3.50;;;1.95;;
40052;SDS011;25758;48.200;16.338;2023-05-10T01:20:03;2.63;;;1.17;;
40052;SDS011;25758;48.200;16.338;2023-05-10T01:30:49;6.40;;;1.25;;
40052;SDS011;25758;48.200;16.338;2023-05-10T01:47:44;4.32;;;1.73;;
40052;SDS011;25758;48.200;16.338;2023-05-10T01:50:17;6.03;;;1.85;;
40052;SDS011;25758;48.200;16.338;2023-05-10T01:52:46;3.35;;;1.60;;
40052;SDS011;25758;48.200;16.338;2023-05-10T01:55:16;3.15;;;1.50;;
40052;SDS011;25758;48.200;16.338;2023-05-10T01:57:45;2.33;;;1.55;;
40052;SDS011;25758;48.200;16.338;2023-05-10T02:00:13;8.40;;;1.75;;
40052;SDS011;25758;48.200;16.338;2023-05-10T02:02:42;6.50;;;1.80;;
40052;SDS011;25758;48.200;16.338;2023-05-10T02:05:12;3.28;;;1.95;;
40052;SDS011;25758;48.200;16.338;2023-05-10T02:07:39;2.33;;;1.40;;
40052;SDS011;25758;48.200;16.338;2023-05-10T02:10:06;4.40;;;1.52;;
40052;SDS011;25758;48.200;16.338;2023-05-10T02:12:43;4.80;;;1.80;;
40052;SDS011;25758;48.200;16.338;2023-05-10T02:15:12;2.30;;;1.80;;
40052;SDS011;25758;48.200;16.338;2023-05-10T02:17:43;4.35;;;1.63;;
40052;SDS011;25758;48.200;16.338;2023-05-10T02:20:11;6.25;;;2.22;;
40052;SDS011;25758;48.200;16.338;2023-05-10T02:22:38;2.35;;;1.38;;
40052;SDS011;25758;48.200;16.338;2023-05-10T02:25:06;4.57;;;1.50;;
40052;SDS011;25758;48.200;16.338;2023-05-10T02:27:34;6.10;;;1.65;;
40052;SDS011;25758;48.200;16.338;2023-05-10T02:30:00;3.00;;;1.80;;
40052;SDS011;25758;48.200;16.338;2023-05-10T02:32:27;4.80;;;1.70;;
40052;SDS011;25758;48.200;16.338;2023-05-10T02:34:54;3.40;;;1.80;;
40052;SDS011;25758;48.200;16.338;2023-05-10T02:37:22;2.25;;;1.45;;
40052;SDS011;25758;48.200;16.338;2023-05-10T02:39:49;4.72;;;2.08;;
40052;SDS011;25758;48.200;16.338;2023-05-10T02:42:16;5.57;;;2.28;;
40052;SDS011;25758;48.200;16.338;2023-05-10T02:44:47;6.15;;;1.98;;
40052;SDS011;25758;48.200;16.338;2023-05-10T02:47:15;3.20;;;1.95;;
40052;SDS011;25758;48.200;16.338;2023-05-10T02:49:41;4.47;;;2.60;;
40052;SDS011;25758;48.200;16.338;2023-05-10T02:52:07;4.40;;;1.85;;
40052;SDS011;25758;48.200;16.338;2023-05-10T02:54:39;6.25;;;1.90;;
40052;SDS011;25758;48.200;16.338;2023-05-10T02:57:09;4.30;;;1.90;;
40052;SDS011;25758;48.200;16.338;2023-05-10T02:59:40;4.10;;;1.58;;
40052;SDS011;25758;48.200;16.338;2023-05-10T03:02:07;4.30;;;1.90;;
40052;SDS011;25758;48.200;16.338;2023-05-10T03:04:34;4.40;;;2.35;;
40052;SDS011;25758;48.200;16.338;2023-05-10T03:07:00;4.30;;;2.17;;
40052;SDS011;25758;48.200;16.338;2023-05-10T03:09:26;7.78;;;2.35;;
40052;SDS011;25758;48.200;16.338;2023-05-10T03:14:45;3.05;;;2.10;;
40052;SDS011;25758;48.200;16.338;2023-05-10T03:17:22;4.38;;;2.28;;
40052;SDS011;25758;48.200;16.338;2023-05-10T03:19:55;8.07;;;2.47;;
40052;SDS011;25758;48.200;16.338;2023-05-10T03:22:40;5.32;;;2.50;;
40052;SDS011;25758;48.200;16.338;2023-05-10T03:25:10;4.80;;;2.85;;
40052;SDS011;25758;48.200;16.338;2023-05-10T03:27:37;4.50;;;2.35;;
40052;SDS011;25758;48.200;16.338;2023-05-10T03:30:05;2.85;;;2.03;;
40052;SDS011;25758;48.200;16.338;2023-05-10T03:32:35;3.75;;;2.17;;
40052;SDS011;25758;48.200;16.338;2023-05-10T03:35:01;7.25;;;2.40;;
40052;SDS011;25758;48.200;16.338;2023-05-10T03:37:34;4.70;;;2.25;;
40052;SDS011;25758;48.200;16.338;2023-05-10T03:40:00;4.45;;;2.13;;
40052;SDS011;25758;48.200;16.338;2023-05-10T03:42:26;3.38;;;2.10;;
40052;SDS011;25758;48.200;16.338;2023-05-10T03:44:52;2.88;;;2.13;;
40052;SDS011;25758;48.200;16.338;2023-05-10T03:47:17;5.25;;;2.45;;
40052;SDS011;25758;48.200;16.338;2023-05-10T03:49:43;6.13;;;2.15;;
40052;SDS011;25758;48.200;16.338;2023-05-10T03:52:08;5.38;;;2.25;;
40052;SDS011;25758;48.200;16.338;2023-05-10T03:54:34;6.10;;;2.60;;
40052;SDS011;25758;48.200;16.338;2023-05-10T03:57:00;4.72;;;2.08;;
40052;SDS011;25758;48.200;16.338;2023-05-10T03:59:26;3.50;;;1.73;;
40052;SDS011;25758;48.200;16.338;2023-05-10T04:01:51;5.35;;;2.28;;
40052;SDS011;25758;48.200;16.338;2023-05-10T04:04:17;4.10;;;2.63;;
40052;SDS011;25758;48.200;16.338;2023-05-10T04:06:43;8.98;;;2.58;;
40052;SDS011;25758;48.200;16.338;2023-05-10T04:09:10;4.75;;;2.47;;
40052;SDS011;25758;48.200;16.338;2023-05-10T04:11:35;4.45;;;2.67;;
40052;SDS011;25758;48.200;16.338;2023-05-10T04:14:01;5.00;;;2.70;;
40052;SDS011;25758;48.200;16.338;2023-05-10T04:16:27;5.50;;;2.08;;
40052;SDS011;25758;48.200;16.338;2023-05-10T04:18:52;4.88;;;2.78;;
40052;SDS011;25758;48.200;16.338;2023-05-10T04:21:18;5.45;;;2.97;;
40052;SDS011;25758;48.200;16.338;2023-05-10T04:23:44;4.88;;;2.83;;
40052;SDS011;25758;48.200;16.338;2023-05-10T04:26:09;6.50;;;2.65;;
40052;SDS011;25758;48.200;16.338;2023-05-10T04:28:35;4.18;;;2.38;;
40052;SDS011;25758;48.200;16.338;2023-05-10T04:31:01;5.05;;;2.40;;
40052;SDS011;25758;48.200;16.338;2023-05-10T04:33:27;8.20;;;2.67;;
40052;SDS011;25758;48.200;16.338;2023-05-10T04:35:53;3.83;;;2.72;;
40052;SDS011;25758;48.200;16.338;2023-05-10T04:38:18;7.25;;;2.42;;
40052;SDS011;25758;48.200;16.338;2023-05-10T04:40:44;4.28;;;2.75;;
40052;SDS011;25758;48.200;16.338;2023-05-10T04:43:09;5.60;;;2.78;;
40052;SDS011;25758;48.200;16.338;2023-05-10T04:45:35;7.85;;;2.72;;
40052;SDS011;25758;48.200;16.338;2023-05-10T04:48:00;4.97;;;2.97;;
40052;SDS011;25758;48.200;16.338;2023-05-10T04:50:26;7.93;;;2.78;;
40052;SDS011;25758;48.200;16.338;2023-05-10T04:52:51;4.80;;;3.17;;
40052;SDS011;25758;48.200;16.338;2023-05-10T04:55:17;7.85;;;2.75;;
40052;SDS011;25758;48.200;16.338;2023-05-10T04:57:43;7.35;;;2.63;;
40052;SDS011;25758;48.200;16.338;2023-05-10T05:00:09;10.50;;;3.00;;
40052;SDS011;25758;48.200;16.338;2023-05-10T05:02:35;4.97;;;2.70;;
40052;SDS011;25758;48.200;16.338;2023-05-10T05:05:01;4.55;;;3.00;;
40052;SDS011;25758;48.200;16.338;2023-05-10T05:07:26;10.18;;;2.75;;
40052;SDS011;25758;48.200;16.338;2023-05-10T05:09:52;7.22;;;3.05;;
40052;SDS011;25758;48.200;16.338;2023-05-10T05:12:18;6.53;;;2.95;;
40052;SDS011;25758;48.200;16.338;2023-05-10T05:14:43;5.80;;;2.80;;
40052;SDS011;25758;48.200;16.338;2023-05-10T05:17:09;9.48;;;3.03;;
40052;SDS011;25758;48.200;16.338;2023-05-10T05:19:34;4.80;;;3.03;;
40052;SDS011;25758;48.200;16.338;2023-05-10T05:22:00;8.40;;;3.47;;
40052;SDS011;25758;48.200;16.338;2023-05-10T05:24:26;5.85;;;2.83;;
40052;SDS011;25758;48.200;16.338;2023-05-10T05:26:52;7.50;;;3.80;;
40052;SDS011;25758;48.200;16.338;2023-05-10T05:29:17;4.10;;;2.88;;
40052;SDS011;25758;48.200;16.338;2023-05-10T05:31:43;7.93;;;3.10;;
40052;SDS011;25758;48.200;16.338;2023-05-10T05:34:08;6.55;;;2.90;;
40052;SDS011;25758;48.200;16.338;2023-05-10T05:36:35;6.53;;;3.17;;
40052;SDS011;25758;48.200;16.338;2023-05-10T05:39:03;5.97;;;2.85;;
40052;SDS011;25758;48.200;16.338;2023-05-10T05:41:28;6.18;;;2.33;;
40052;SDS011;25758;48.200;16.338;2023-05-10T05:43:54;4.57;;;2.63;;
40052;SDS011;25758;48.200;16.338;2023-05-10T05:46:20;6.13;;;3.03;;
40052;SDS011;25758;48.200;16.338;2023-05-10T05:48:45;4.90;;;2.42;;
40052;SDS011;25758;48.200;16.338;2023-05-10T05:51:11;10.02;;;3.15;;
40052;SDS011;25758;48.200;16.338;2023-05-10T05:53:36;7.00;;;3.63;;
40052;SDS011;25758;48.200;16.338;2023-05-10T05:56:02;8.18;;;3.88;;
40052;SDS011;25758;48.200;16.338;2023-05-10T05:58:28;9.70;;;3.28;;
40052;SDS011;25758;48.200;16.338;2023-05-10T06:00:54;7.05;;;3.00;;
40052;SDS011;25758;48.200;16.338;2023-05-10T06:03:20;3.88;;;2.72;;
40052;SDS011;25758;48.200;16.338;2023-05-10T06:05:45;8.45;;;2.65;;
40052;SDS011;25758;48.200;16.338;2023-05-10T06:08:11;5.22;;;2.65;;
40052;SDS011;25758;48.200;16.338;2023-05-10T06:10:37;5.07;;;2.58;;
40052;SDS011;25758;48.200;16.338;2023-05-10T06:13:03;4.47;;;2.50;;
40052;SDS011;25758;48.200;16.338;2023-05-10T06:15:28;5.97;;;2.95;;
40052;SDS011;25758;48.200;16.338;2023-05-10T06:17:54;11.32;;;3.70;;
40052;SDS011;25758;48.200;16.338;2023-05-10T06:20:19;6.05;;;2.72;;
40052;SDS011;25758;48.200;16.338;2023-05-10T06:22:45;8.50;;;2.80;;
40052;SDS011;25758;48.200;16.338;2023-05-10T06:25:11;5.80;;;2.55;;
40052;SDS011;25758;48.200;16.338;2023-05-10T06:27:36;8.95;;;2.60;;
40052;SDS011;25758;48.200;16.338;2023-05-10T06:30:02;10.18;;;3.30;;
40052;SDS011;25758;48.200;16.338;2023-05-10T06:32:29;5.55;;;2.72;;
40052;SDS011;25758;48.200;16.338;2023-05-10T06:34:55;9.10;;;2.72;;
40052;SDS011;25758;48.200;16.338;2023-05-10T06:37:20;6.03;;;2.45;;
40052;SDS011;25758;48.200;16.338;2023-05-10T06:39:46;6.68;;;2.67;;
40052;SDS011;25758;48.200;16.338;2023-05-10T06:42:12;7.90;;;2.80;;
40052;SDS011;25758;48.200;16.338;2023-05-10T06:44:37;6.25;;;2.47;;
40052;SDS011;25758;48.200;16.338;2023-05-10T06:47:03;6.60;;;2.47;;
40052;SDS011;25758;48.200;16.338;2023-05-10T06:49:28;10.43;;;3.00;;
40052;SDS011;25758;48.200;16.338;2023-05-10T06:51:57;7.40;;;2.67;;
40052;SDS011;25758;48.200;16.338;2023-05-10T06:54:23;5.47;;;3.03;;
40052;SDS011;25758;48.200;16.338;2023-05-10T06:56:49;7.18;;;2.60;;
40052;SDS011;25758;48.200;16.338;2023-05-10T06:59:14;7.05;;;2.70;;
40052;SDS011;25758;48.200;16.338;2023-05-10T07:01:41;7.43;;;2.15;;
40052;SDS011;25758;48.200;16.338;2023-05-10T07:04:07;3.47;;;1.73;;
40052;SDS011;25758;48.200;16.338;2023-05-10T07:06:33;4.85;;;2.60;;
40052;SDS011;25758;48.200;16.338;2023-05-10T07:08:59;8.30;;;2.50;;
40052;SDS011;25758;48.200;16.338;2023-05-10T07:11:26;10.07;;;2.63;;
40052;SDS011;25758;48.200;16.338;2023-05-10T07:13:51;7.55;;;2.60;;
40052;SDS011;25758;48.200;16.338;2023-05-10T07:16:17;5.00;;;2.75;;
40052;SDS011;25758;48.200;16.338;2023-05-10T07:18:43;5.50;;;2.17;;
40052;SDS011;25758;48.200;16.338;2023-05-10T07:21:08;4.88;;;2.47;;
40052;SDS011;25758;48.200;16.338;2023-05-10T07:23:34;11.20;;;3.72;;
40052;SDS011;25758;48.200;16.338;2023-05-10T07:26:00;3.03;;;2.03;;
40052;SDS011;25758;48.200;16.338;2023-05-10T07:28:27;7.82;;;2.53;;
40052;SDS011;25758;48.200;16.338;2023-05-10T07:30:52;4.38;;;2.13;;
40052;SDS011;25758;48.200;16.338;2023-05-10T07:33:18;8.32;;;2.30;;
40052;SDS011;25758;48.200;16.338;2023-05-10T07:35:44;6.18;;;2.25;;
40052;SDS011;25758;48.200;16.338;2023-05-10T07:38:10;5.53;;;2.38;;
40052;SDS011;25758;48.200;16.338;2023-05-10T07:40:36;3.85;;;2.28;;
40052;SDS011;25758;48.200;16.338;2023-05-10T07:43:03;8.00;;;2.60;;
40052;SDS011;25758;48.200;16.338;2023-05-10T07:45:28;4.47;;;2.88;;
40052;SDS011;25758;48.200;16.338;2023-05-10T07:47:54;3.97;;;2.50;;
40052;SDS011;25758;48.200;16.338;2023-05-10T07:50:20;3.30;;;1.98;;
40052;SDS011;25758;48.200;16.338;2023-05-10T07:52:46;7.13;;;2.42;;
40052;SDS011;25758;48.200;16.338;2023-05-10T07:55:12;6.40;;;2.10;;
40052;SDS011;25758;48.200;16.338;2023-05-10T07:57:37;5.80;;;1.80;;
40052;SDS011;25758;48.200;16.338;2023-05-10T08:00:04;8.18;;;2.42;;
40052;SDS011;25758;48.200;16.338;2023-05-10T08:02:30;5.07;;;2.22;;
40052;SDS011;25758;48.200;16.338;2023-05-10T08:04:56;3.03;;;2.10;;
40052;SDS011;25758;48.200;16.338;2023-05-10T08:07:22;2.90;;;2.10;;
40052;SDS011;25758;48.200;16.338;2023-05-10T08:09:49;7.53;;;2.17;;
40052;SDS011;25758;48.200;16.338;2023-05-10T08:12:14;5.90;;;2.67;;
40052;SDS011;25758;48.200;16.338;2023-05-10T08:14:40;6.22;;;2.00;;
40052;SDS011;25758;48.200;16.338;2023-05-10T08:17:06;6.10;;;2.70;;
40052;SDS011;25758;48.200;16.338;2023-05-10T08:19:31;10.27;;;2.70;;
40052;SDS011;25758;48.200;16.338;2023-05-10T08:21:57;5.50;;;2.88;;
40052;SDS011;25758;48.200;16.338;2023-05-10T08:24:23;6.50;;;2.38;;
40052;SDS011;25758;48.200;16.338;2023-05-10T08:26:48;7.85;;;2.70;;
40052;SDS011;25758;48.200;16.338;2023-05-10T08:29:14;4.45;;;2.10;;
40052;SDS011;25758;48.200;16.338;2023-05-10T08:31:40;8.00;;;2.47;;
40052;SDS011;25758;48.200;16.338;2023-05-10T08:34:06;9.50;;;1.95;;
40052;SDS011;25758;48.200;16.338;2023-05-10T08:36:31;5.45;;;1.35;;
40052;SDS011;25758;48.200;16.338;2023-05-10T08:38:57;3.95;;;1.90;;
40052;SDS011;25758;48.200;16.338;2023-05-10T08:41:23;3.80;;;1.65;;
40052;SDS011;25758;48.200;16.338;2023-05-10T08:43:50;3.13;;;1.90;;
40052;SDS011;25758;48.200;16.338;2023-05-10T08:46:18;6.07;;;1.58;;
40052;SDS011;25758;48.200;16.338;2023-05-10T08:48:45;6.22;;;1.55;;
40052;SDS011;25758;48.200;16.338;2023-05-10T08:51:13;5.75;;;1.98;;
40052;SDS011;25758;48.200;16.338;2023-05-10T08:53:42;5.18;;;2.10;;
40052;SDS011;25758;48.200;16.338;2023-05-10T08:56:09;9.25;;;2.10;;
40052;SDS011;25758;48.200;16.338;2023-05-10T08:58:35;6.80;;;2.00;;
40052;SDS011;25758;48.200;16.338;2023-05-10T09:01:02;4.65;;;2.08;;
40052;SDS011;25758;48.200;16.338;2023-05-10T09:03:29;2.63;;;1.48;;
40052;SDS011;25758;48.200;16.338;2023-05-10T09:05:55;3.58;;;1.60;;
40052;SDS011;25758;48.200;16.338;2023-05-10T09:08:21;2.88;;;1.20;;
40052;SDS011;25758;48.200;16.338;2023-05-10T09:10:50;6.68;;;1.52;;
40052;SDS011;25758;48.200;16.338;2023-05-10T09:13:17;5.93;;;2.50;;
40052;SDS011;25758;48.200;16.338;2023-05-10T09:15:43;3.53;;;1.40;;
40052;SDS011;25758;48.200;16.338;2023-05-10T09:18:10;4.22;;;1.25;;
40052;SDS011;25758;48.200;16.338;2023-05-10T09:20:35;2.92;;;1.13;;
40052;SDS011;25758;48.200;16.338;2023-05-10T09:23:01;2.47;;;1.23;;
40052;SDS011;25758;48.200;16.338;2023-05-10T09:25:27;5.25;;;1.00;;
40052;SDS011;25758;48.200;16.338;2023-05-10T09:27:52;5.53;;;0.95;;
40052;SDS011;25758;48.200;16.338;2023-05-10T09:30:30;1.70;;;0.80;;
40052;SDS011;25758;48.200;16.338;2023-05-10T09:32:57;2.90;;;0.85;;
40052;SDS011;25758;48.200;16.338;2023-05-10T09:35:24;4.25;;;0.70;;
40052;SDS011;25758;48.200;16.338;2023-05-10T09:37:52;6.38;;;2.85;;
40052;SDS011;25758;48.200;16.338;2023-05-10T09:40:19;5.03;;;0.60;;
40052;SDS011;25758;48.200;16.338;2023-05-10T09:42:51;3.03;;;0.93;;
40052;SDS011;25758;48.200;16.338;2023-05-10T09:45:20;2.50;;;0.98;;
40052;SDS011;25758;48.200;16.338;2023-05-10T09:47:46;1.13;;;0.45;;
40052;SDS011;25758;48.200;16.338;2023-05-10T09:50:12;6.72;;;0.60;;
40052;SDS011;25758;48.200;16.338;2023-05-10T09:52:57;5.75;;;0.50;;
40052;SDS011;25758;48.200;16.338;2023-05-10T09:55:25;0.65;;;0.28;;
40052;SDS011;25758;48.200;16.338;2023-05-10T09:58:12;3.47;;;0.52;;
40052;SDS011;25758;48.200;16.338;2023-05-10T10:00:39;4.53;;;0.50;;
40052;SDS011;25758;48.200;16.338;2023-05-10T10:03:07;5.07;;;0.40;;
40052;SDS011;25758;48.200;16.338;2023-05-10T10:05:41;4.70;;;0.35;;
40052;SDS011;25758;48.200;16.338;2023-05-10T10:08:08;4.57;;;0.35;;
40052;SDS011;25758;48.200;16.338;2023-05-10T10:10:34;1.77;;;0.55;;
40052;SDS011;25758;48.200;16.338;2023-05-10T10:13:00;4.97;;;0.32;;
40052;SDS011;25758;48.200;16.338;2023-05-10T10:15:26;2.00;;;0.40;;
40052;SDS011;25758;48.200;16.338;2023-05-10T10:17:52;2.25;;;0.22;;
40052;SDS011;25758;48.200;16.338;2023-05-10T10:20:19;2.22;;;0.40;;
40052;SDS011;25758;48.200;16.338;2023-05-10T10:22:45;1.05;;;0.30;;
40052;SDS011;25758;48.200;16.338;2023-05-10T10:25:12;5.05;;;0.50;;
40052;SDS011;25758;48.200;16.338;2023-05-10T10:27:47;6.35;;;0.50;;
40052;SDS011;25758;48.200;16.338;2023-05-10T10:35:36;8.05;;;0.95;;
40052;SDS011;25758;48.200;16.338;2023-05-10T10:38:02;5.18;;;0.40;;
40052;SDS011;25758;48.200;16.338;2023-05-10T10:40:31;2.25;;;0.47;;
40052;SDS011;25758;48.200;16.338;2023-05-10T10:42:59;7.85;;;0.90;;
40052;SDS011;25758;48.200;16.338;2023-05-10T10:48:37;20.35;;;7.55;;
40052;SDS011;25758;48.200;16.338;2023-05-10T10:51:03;8.07;;;3.55;;
40052;SDS011;25758;48.200;16.338;2023-05-10T10:53:28;8.23;;;1.48;;
40052;SDS011;25758;48.200;16.338;2023-05-10T10:56:07;14.75;;;3.78;;
40052;SDS011;25758;48.200;16.338;2023-05-10T10:58:35;4.18;;;0.80;;
40052;SDS011;25758;48.200;16.338;2023-05-10T11:01:14;6.50;;;2.30;;
40052;SDS011;25758;48.200;16.338;2023-05-10T11:03:54;2.42;;;0.60;;
40052;SDS011;25758;48.200;16.338;2023-05-10T11:06:32;7.80;;;1.77;;
40052;SDS011;25758;48.200;16.338;2023-05-10T11:09:00;7.68;;;1.52;;
40052;SDS011;25758;48.200;16.338;2023-05-10T11:11:34;2.83;;;0.70;;
40052;SDS011;25758;48.200;16.338;2023-05-10T11:14:07;4.55;;;1.15;;
40052;SDS011;25758;48.200;16.338;2023-05-10T11:16:42;4.35;;;0.63;;
40052;SDS011;25758;48.200;16.338;2023-05-10T11:19:10;5.80;;;2.13;;
40052;SDS011;25758;48.200;16.338;2023-05-10T11:24:15;1.83;;;0.75;;
40052;SDS011;25758;48.200;16.338;2023-05-10T11:26:45;1.88;;;0.50;;
40052;SDS011;25758;48.200;16.338;2023-05-10T11:29:12;2.33;;;0.60;;
40052;SDS011;25758;48.200;16.338;2023-05-10T11:31:42;4.53;;;0.70;;
40052;SDS011;25758;48.200;16.338;2023-05-10T11:34:12;9.35;;;0.70;;
40052;SDS011;25758;48.200;16.338;2023-05-10T11:36:55;3.45;;;0.75;;
40052;SDS011;25758;48.200;16.338;2023-05-10T11:39:25;5.25;;;1.42;;
40052;SDS011;25758;48.200;16.338;2023-05-10T11:41:52;1.52;;;0.63;;
40052;SDS011;25758;48.200;16.338;2023-05-10T11:44:18;1.75;;;0.68;;
40052;SDS011;25758;48.200;16.338;2023-05-10T11:46:43;3.45;;;0.70;;
40052;SDS011;25758;48.200;16.338;2023-05-10T11:49:09;3.22;;;0.80;;
40052;SDS011;25758;48.200;16.338;2023-05-10T11:51:36;1.38;;;0.57;;
40052;SDS011;25758;48.200;16.338;2023-05-10T11:54:05;3.33;;;0.70;;
40052;SDS011;25758;48.200;16.338;2023-05-10T11:56:33;4.75;;;1.70;;
40052;SDS011;25758;48.200;16.338;2023-05-10T11:58:59;1.85;;;0.50;;
40052;SDS011;25758;48.200;16.338;2023-05-10T12:01:26;4.15;;;0.50;;
40052;SDS011;25758;48.200;16.338;2023-05-10T12:03:53;1.23;;;0.30;;
40052;SDS011;25758;48.200;16.338;2023-05-10T12:06:25;6.35;;;0.63;;
40052;SDS011;25758;48.200;16.338;2023-05-10T12:08:52;2.00;;;0.32;;
40052;SDS011;25758;48.200;16.338;2023-05-10T12:11:18;1.20;;;0.30;;
40052;SDS011;25758;48.200;16.338;2023-05-10T12:13:46;0.95;;;0.30;;
40052;SDS011;25758;48.200;16.338;2023-05-10T12:16:16;5.80;;;0.68;;
40052;SDS011;25758;48.200;16.338;2023-05-10T12:18:44;0.75;;;0.40;;
40052;SDS011;25758;48.200;16.338;2023-05-10T12:21:10;2.03;;;0.73;;
40052;SDS011;25758;48.200;16.338;2023-05-10T12:23:36;5.80;;;0.35;;
40052;SDS011;25758;48.200;16.338;2023-05-10T12:26:06;1.85;;;0.82;;
40052;SDS011;25758;48.200;16.338;2023-05-10T12:28:34;1.58;;;0.30;;
40052;SDS011;25758;48.200;16.338;2023-05-10T12:31:00;1.48;;;0.30;;
40052;SDS011;25758;48.200;16.338;2023-05-10T12:33:27;6.18;;;0.30;;
40052;SDS011;25758;48.200;16.338;2023-05-10T12:35:59;1.05;;;0.28;;
40052;SDS011;25758;48.200;16.338;2023-05-10T12:40:54;5.30;;;0.40;;
40052;SDS011;25758;48.200;16.338;2023-05-10T12:43:24;4.78;;;0.47;;
40052;SDS011;25758;48.200;16.338;2023-05-10T12:45:49;3.10;;;0.30;;
40052;SDS011;25758;48.200;16.338;2023-05-10T12:48:15;3.63;;;0.32;;
40052;SDS011;25758;48.200;16.338;2023-05-10T12:50:41;1.73;;;0.40;;
40052;SDS011;25758;48.200;16.338;2023-05-10T12:53:06;3.00;;;0.30;;
40052;SDS011;25758;48.200;16.338;2023-05-10T12:55:32;1.08;;;0.30;;
40052;SDS011;25758;48.200;16.338;2023-05-10T12:57:58;2.33;;;0.35;;
40052;SDS011;25758;48.200;16.338;2023-05-10T13:00:23;3.60;;;0.50;;
40052;SDS011;25758;48.200;16.338;2023-05-10T13:02:49;1.08;;;0.40;;
40052;SDS011;25758;48.200;16.338;2023-05-10T13:05:15;7.45;;;1.50;;
40052;SDS011;25758;48.200;16.338;2023-05-10T13:07:40;4.80;;;0.60;;
40052;SDS011;25758;48.200;16.338;2023-05-10T13:10:06;1.30;;;0.45;;
40052;SDS011;25758;48.200;16.338;2023-05-10T13:12:32;4.68;;;0.60;;
40052;SDS011;25758;48.200;16.338;2023-05-10T13:14:57;1.38;;;0.43;;
40052;SDS011;25758;48.200;16.338;2023-05-10T13:17:24;4.65;;;0.70;;
40052;SDS011;25758;48.200;16.338;2023-05-10T13:19:50;2.22;;;0.63;;
40052;SDS011;25758;48.200;16.338;2023-05-10T13:22:16;2.70;;;0.50;;
40052;SDS011;25758;48.200;16.338;2023-05-10T13:24:42;3.85;;;0.45;;
40052;SDS011;25758;48.200;16.338;2023-05-10T13:27:08;5.85;;;3.25;;
40052;SDS011;25758;48.200;16.338;2023-05-10T13:29:33;2.85;;;0.60;;
40052;SDS011;25758;48.200;16.338;2023-05-10T13:31:59;3.63;;;0.88;;
40052;SDS011;25758;48.200;16.338;2023-05-10T13:34:25;3.80;;;0.43;;
40052;SDS011;25758;48.200;16.338;2023-05-10T13:36:51;1.23;;;0.43;;
40052;SDS011;25758;48.200;16.338;2023-05-10T13:39:18;5.93;;;0.47;;
40052;SDS011;25758;48.200;16.338;2023-05-10T13:41:45;2.78;;;0.77;;
40052;SDS011;25758;48.200;16.338;2023-05-10T13:44:14;6.55;;;0.70;;
40052;SDS011;25758;48.200;16.338;2023-05-10T13:46:40;1.60;;;0.77;;
40052;SDS011;25758;48.200;16.338;2023-05-10T13:49:08;1.23;;;0.32;;
40052;SDS011;25758;48.200;16.338;2023-05-10T13:51:34;1.48;;;0.30;;
40052;SDS011;25758;48.200;16.338;2023-05-10T13:54:00;5.82;;;0.88;;
40052;SDS011;25758;48.200;16.338;2023-05-10T13:56:29;3.63;;;0.93;;
40052;SDS011;25758;48.200;16.338;2023-05-10T13:58:56;3.58;;;0.90;;
40052;SDS011;25758;48.200;16.338;2023-05-10T14:01:22;1.92;;;0.50;;
40052;SDS011;25758;48.200;16.338;2023-05-10T14:03:48;3.90;;;0.65;;
40052;SDS011;25758;48.200;16.338;2023-05-10T14:06:13;5.38;;;0.40;;
40052;SDS011;25758;48.200;16.338;2023-05-10T14:08:39;4.13;;;0.40;;
40052;SDS011;25758;48.200;16.338;2023-05-10T14:11:05;1.55;;;0.32;;
40052;SDS011;25758;48.200;16.338;2023-05-10T14:13:30;6.03;;;0.80;;
40052;SDS011;25758;48.200;16.338;2023-05-10T14:15:56;1.45;;;0.43;;
40052;SDS011;25758;48.200;16.338;2023-05-10T14:18:22;5.30;;;0.50;;
40052;SDS011;25758;48.200;16.338;2023-05-10T14:20:47;1.77;;;0.40;;
40052;SDS011;25758;48.200;16.338;2023-05-10T14:23:13;1.13;;;0.50;;
40052;SDS011;25758;48.200;16.338;2023-05-10T14:25:40;3.22;;;0.57;;
40052;SDS011;25758;48.200;16.338;2023-05-10T14:28:05;4.65;;;0.52;;
40052;SDS011;25758;48.200;16.338;2023-05-10T14:30:31;4.40;;;0.60;;
40052;SDS011;25758;48.200;16.338;2023-05-10T14:32:59;2.67;;;0.50;;
40052;SDS011;25758;48.200;16.338;2023-05-10T14:35:26;4.28;;;0.70;;
40052;SDS011;25758;48.200;16.338;2023-05-10T14:37:52;2.00;;;0.52;;
40052;SDS011;25758;48.200;16.338;2023-05-10T14:40:18;3.30;;;0.63;;
40052;SDS011;25758;48.200;16.338;2023-05-10T14:42:44;5.55;;;0.52;;
40052;SDS011;25758;48.200;16.338;2023-05-10T14:45:09;0.95;;;0.30;;
40052;SDS011;25758;48.200;16.338;2023-05-10T14:47:36;2.08;;;0.55;;
40052;SDS011;25758;48.200;16.338;2023-05-10T14:50:01;2.78;;;0.40;;
40052;SDS011;25758;48.200;16.338;2023-05-10T14:52:27;2.20;;;0.38;;
40052;SDS011;25758;48.200;16.338;2023-05-10T14:54:53;1.63;;;0.30;;
40052;SDS011;25758;48.200;16.338;2023-05-10T14:57:18;4.32;;;0.40;;
40052;SDS011;25758;48.200;16.338;2023-05-10T14:59:44;1.98;;;0.50;;
40052;SDS011;25758;48.200;16.338;2023-05-10T15:02:10;1.48;;;0.55;;
40052;SDS011;25758;48.200;16.338;2023-05-10T15:04:36;1.73;;;0.38;;
40052;SDS011;25758;48.200;16.338;2023-05-10T15:07:01;1.08;;;0.50;;
40052;SDS011;25758;48.200;16.338;2023-05-10T15:09:28;2.47;;;0.25;;
40052;SDS011;25758;48.200;16.338;2023-05-10T15:11:53;3.70;;;0.30;;